sensor_id;sensor_type;location;lat;lon;timestamp;pressure;altitude;pressure_sealevel;temperature;humidity
65546;BME280;52177;55.968;37.498;2023-12-22T00:00:12;97448.88;;;0.70;81.94
65546;BME280;52177;55.968;37.498;2023-12-22T00:00:42;97442.00;;;0.69;81.84
65546;BME280;52177;55.968;37.498;2023-12-22T00:01:13;97447.41;;;0.67;81.94
65546;BME280;52177;55.968;37.498;2023-12-22T00:01:45;97442.16;;;0.67;82.00
65546;BME280;52177;55.968;37.498;2023-12-22T00:02:15;97445.44;;;0.69;82.11
65546;BME280;52177;55.968;37.498;2023-12-22T00:02:46;97446.25;;;0.70;81.95
65546;BME280;52177;55.968;37.498;2023-12-22T00:03:16;97437.72;;;0.68;81.87
65546;BME280;52177;55.968;37.498;2023-12-22T00:03:46;97443.81;;;0.68;81.99
65546;BME280;52177;55.968;37.498;2023-12-22T00:04:17;97446.75;;;0.65;81.91
65546;BME280;52177;55.968;37.498;2023-12-22T00:04:47;97453.00;;;0.64;81.81
65546;BME280;52177;55.968;37.498;2023-12-22T00:05:17;97444.31;;;0.63;81.85
65546;BME280;52177;55.968;37.498;2023-12-22T00:05:48;97444.47;;;0.62;81.81
65546;BME280;52177;55.968;37.498;2023-12-22T00:06:18;97446.44;;;0.60;81.83
65546;BME280;52177;55.968;37.498;2023-12-22T00:06:48;97444.63;;;0.60;81.80
65546;BME280;52177;55.968;37.498;2023-12-22T00:07:19;97436.78;;;0.60;82.05
65546;BME280;52177;55.968;37.498;2023-12-22T00:07:50;97448.72;;;0.63;82.02
65546;BME280;52177;55.968;37.498;2023-12-22T00:08:20;97443.69;;;0.61;82.06
65546;BME280;52177;55.968;37.498;2023-12-22T00:08:50;97442.69;;;0.62;82.07
65546;BME280;52177;55.968;37.498;2023-12-22T00:09:21;97443.47;;;0.63;82.00
65546;BME280;52177;55.968;37.498;2023-12-22T00:09:51;97441.50;;;0.65;82.14
65546;BME280;52177;55.968;37.498;2023-12-22T00:10:22;97444.78;;;0.67;82.10
65546;BME280;52177;55.968;37.498;2023-12-22T00:10:52;97440.34;;;0.68;81.83
65546;BME280;52177;55.968;37.498;2023-12-22T00:11:22;97442.81;;;0.69;81.81
65546;BME280;52177;55.968;37.498;2023-12-22T00:11:53;97437.72;;;0.68;81.66
65546;BME280;52177;55.968;37.498;2023-12-22T00:12:23;97445.78;;;0.66;81.74
65546;BME280;52177;55.968;37.498;2023-12-22T00:12:54;97446.09;;;0.63;81.61
65546;BME280;52177;55.968;37.498;2023-12-22T00:13:24;97451.34;;;0.63;81.79
65546;BME280;52177;55.968;37.498;2023-12-22T00:13:54;97441.22;;;0.60;81.68
65546;BME280;52177;55.968;37.498;2023-12-22T00:14:25;97445.63;;;0.59;81.84
65546;BME280;52177;55.968;37.498;2023-12-22T00:14:55;97439.59;;;0.59;81.91
65546;BME280;52177;55.968;37.498;2023-12-22T00:15:25;97444.00;;;0.58;82.04
65546;BME280;52177;55.968;37.498;2023-12-22T00:15:56;97444.00;;;0.58;81.95
65546;BME280;52177;55.968;37.498;2023-12-22T00:16:26;97449.22;;;0.58;81.88
65546;BME280;52177;55.968;37.498;2023-12-22T00:16:56;97444.00;;;0.58;82.02
65546;BME280;52177;55.968;37.498;2023-12-22T00:17:27;97444.84;;;0.59;81.93
65546;BME280;52177;55.968;37.498;2023-12-22T00:17:57;97433.50;;;0.58;81.91
65546;BME280;52177;55.968;37.498;2023-12-22T00:18:27;97440.56;;;0.58;81.89
65546;BME280;52177;55.968;37.498;2023-12-22T00:18:58;97439.59;;;0.59;81.84
65546;BME280;52177;55.968;37.498;2023-12-22T00:19:28;97439.75;;;0.57;81.86
65546;BME280;52177;55.968;37.498;2023-12-22T00:19:58;97441.38;;;0.58;81.90
65546;BME280;52177;55.968;37.498;2023-12-22T00:20:33;97439.75;;;0.57;81.98
65546;BME280;52177;55.968;37.498;2023-12-22T00:21:03;97432.03;;;0.56;81.82
65546;BME280;52177;55.968;37.498;2023-12-22T00:21:34;97439.09;;;0.55;81.91
65546;BME280;52177;55.968;37.498;2023-12-22T00:22:04;97434.84;;;0.54;81.75
65546;BME280;52177;55.968;37.498;2023-12-22T00:22:34;97432.22;;;0.54;81.89
65546;BME280;52177;55.968;37.498;2023-12-22T00:23:05;97436.47;;;0.55;81.99
65546;BME280;52177;55.968;37.498;2023-12-22T00:23:35;97433.03;;;0.55;81.83
65546;BME280;52177;55.968;37.498;2023-12-22T00:24:06;97432.88;;;0.56;81.69
65546;BME280;52177;55.968;37.498;2023-12-22T00:24:37;97432.22;;;0.54;81.63
65546;BME280;52177;55.968;37.498;2023-12-22T00:25:07;97432.38;;;0.53;81.82
65546;BME280;52177;55.968;37.498;2023-12-22T00:25:39;97433.38;;;0.52;81.80
65546;BME280;52177;55.968;37.498;2023-12-22T00:26:10;97431.75;;;0.51;81.82
65546;BME280;52177;55.968;37.498;2023-12-22T00:26:40;97437.97;;;0.50;81.98
65546;BME280;52177;55.968;37.498;2023-12-22T00:27:11;97429.13;;;0.51;81.92
65546;BME280;52177;55.968;37.498;2023-12-22T00:27:41;97437.16;;;0.49;82.03
65546;BME280;52177;55.968;37.498;2023-12-22T00:28:11;97425.03;;;0.48;82.12
65546;BME280;52177;55.968;37.498;2023-12-22T00:28:42;97430.13;;;0.50;82.11
65546;BME280;52177;55.968;37.498;2023-12-22T00:29:13;97430.94;;;0.50;82.09
65546;BME280;52177;55.968;37.498;2023-12-22T00:29:43;97434.53;;;0.49;81.93
65546;BME280;52177;55.968;37.498;2023-12-22T00:30:13;97437.78;;;0.51;81.99
65546;BME280;52177;55.968;37.498;2023-12-22T00:30:44;97435.66;;;0.55;82.10
65546;BME280;52177;55.968;37.498;2023-12-22T00:31:14;97433.38;;;0.52;81.97
65546;BME280;52177;55.968;37.498;2023-12-22T00:31:45;97432.53;;;0.51;82.03
65546;BME280;52177;55.968;37.498;2023-12-22T00:32:15;97421.09;;;0.52;82.05
65546;BME280;52177;55.968;37.498;2023-12-22T00:32:45;97426.34;;;0.52;81.98
65546;BME280;52177;55.968;37.498;2023-12-22T00:33:16;97435.00;;;0.53;81.88
65546;BME280;52177;55.968;37.498;2023-12-22T00:33:46;97428.16;;;0.52;81.86
65546;BME280;52177;55.968;37.498;2023-12-22T00:34:17;97428.16;;;0.52;81.89
65546;BME280;52177;55.968;37.498;2023-12-22T00:34:49;97428.16;;;0.52;81.85
65546;BME280;52177;55.968;37.498;2023-12-22T00:35:20;97427.31;;;0.51;81.84
65546;BME280;52177;55.968;37.498;2023-12-22T00:35:50;97431.75;;;0.51;81.72
65546;BME280;52177;55.968;37.498;2023-12-22T00:36:21;97420.44;;;0.50;81.90
65546;BME280;52177;55.968;37.498;2023-12-22T00:36:54;97418.81;;;0.49;81.86
65546;BME280;52177;55.968;37.498;2023-12-22T00:37:25;97421.25;;;0.51;81.75
65546;BME280;52177;55.968;37.498;2023-12-22T00:37:55;97418.63;;;0.51;81.78
65546;BME280;52177;55.968;37.498;2023-12-22T00:38:25;97420.28;;;0.52;81.68
65546;BME280;52177;55.968;37.498;2023-12-22T00:38:56;97415.19;;;0.50;81.67
65546;BME280;52177;55.968;37.498;2023-12-22T00:39:26;97428.47;;;0.49;81.62
65546;BME280;52177;55.968;37.498;2023-12-22T00:39:56;97420.59;;;0.49;81.58
65546;BME280;52177;55.968;37.498;2023-12-22T00:40:27;97419.94;;;0.47;81.76
65546;BME280;52177;55.968;37.498;2023-12-22T00:40:57;97419.13;;;0.46;81.65
65546;BME280;52177;55.968;37.498;2023-12-22T00:41:27;97421.75;;;0.46;81.76
65546;BME280;52177;55.968;37.498;2023-12-22T00:41:58;97421.44;;;0.49;81.70
65546;BME280;52177;55.968;37.498;2023-12-22T00:42:28;97417.97;;;0.49;81.79
65546;BME280;52177;55.968;37.498;2023-12-22T00:42:58;97417.97;;;0.49;81.81
65546;BME280;52177;55.968;37.498;2023-12-22T00:43:29;97415.34;;;0.49;81.64
65546;BME280;52177;55.968;37.498;2023-12-22T00:43:59;97415.69;;;0.46;81.65
65546;BME280;52177;55.968;37.498;2023-12-22T00:44:29;97413.25;;;0.44;81.70
65546;BME280;52177;55.968;37.498;2023-12-22T00:45:00;97413.09;;;0.46;81.67
65546;BME280;52177;55.968;37.498;2023-12-22T00:45:31;97410.47;;;0.46;81.79
65546;BME280;52177;55.968;37.498;2023-12-22T00:46:01;97411.13;;;0.48;81.69
65546;BME280;52177;55.968;37.498;2023-12-22T00:46:32;97407.69;;;0.47;81.55
65546;BME280;52177;55.968;37.498;2023-12-22T00:47:02;97410.47;;;0.46;81.57
65546;BME280;52177;55.968;37.498;2023-12-22T00:47:32;97411.47;;;0.45;81.54
65546;BME280;52177;55.968;37.498;2023-12-22T00:48:05;97410.63;;;0.44;81.70
65546;BME280;52177;55.968;37.498;2023-12-22T00:48:36;97413.09;;;0.46;81.62
65546;BME280;52177;55.968;37.498;2023-12-22T00:49:06;97414.09;;;0.45;81.50
65546;BME280;52177;55.968;37.498;2023-12-22T00:49:37;97415.06;;;0.44;81.38
65546;BME280;52177;55.968;37.498;2023-12-22T00:50:08;97415.06;;;0.44;81.26
65546;BME280;52177;55.968;37.498;2023-12-22T00:50:38;97412.44;;;0.44;81.30
65546;BME280;52177;55.968;37.498;2023-12-22T00:51:09;97412.44;;;0.44;81.41
65546;BME280;52177;55.968;37.498;2023-12-22T00:51:40;97413.44;;;0.43;81.25
65546;BME280;52177;55.968;37.498;2023-12-22T00:52:10;97410.81;;;0.43;81.29
65546;BME280;52177;55.968;37.498;2023-12-22T00:52:40;97411.63;;;0.43;81.27
65546;BME280;52177;55.968;37.498;2023-12-22T00:53:11;97416.84;;;0.43;81.23
65546;BME280;52177;55.968;37.498;2023-12-22T00:53:41;97408.84;;;0.45;81.23
65546;BME280;52177;55.968;37.498;2023-12-22T00:54:11;97404.41;;;0.45;81.22
65546;BME280;52177;55.968;37.498;2023-12-22T00:54:42;97404.56;;;0.44;81.14
65546;BME280;52177;55.968;37.498;2023-12-22T00:55:12;97410.81;;;0.43;80.99
65546;BME280;52177;55.968;37.498;2023-12-22T00:55:43;97407.19;;;0.44;81.07
65546;BME280;52177;55.968;37.498;2023-12-22T00:56:13;97406.22;;;0.45;81.04
65546;BME280;52177;55.968;37.498;2023-12-22T00:56:43;97411.63;;;0.43;80.98
65546;BME280;52177;55.968;37.498;2023-12-22T00:57:14;97408.84;;;0.45;80.86
65546;BME280;52177;55.968;37.498;2023-12-22T00:57:44;97408.84;;;0.45;80.81
65546;BME280;52177;55.968;37.498;2023-12-22T00:58:14;97404.56;;;0.44;80.77
65546;BME280;52177;55.968;37.498;2023-12-22T00:58:45;97409.00;;;0.43;80.75
65546;BME280;52177;55.968;37.498;2023-12-22T00:59:15;97406.22;;;0.45;80.65
65546;BME280;52177;55.968;37.498;2023-12-22T00:59:45;97406.38;;;0.43;80.50
65546;BME280;52177;55.968;37.498;2023-12-22T01:00:18;97406.22;;;0.45;80.69
65546;BME280;52177;55.968;37.498;2023-12-22T01:00:48;97407.03;;;0.45;80.66
65546;BME280;52177;55.968;37.498;2023-12-22T01:01:18;97400.78;;;0.46;80.62
65546;BME280;52177;55.968;37.498;2023-12-22T01:01:49;97414.53;;;0.48;80.66
65546;BME280;52177;55.968;37.498;2023-12-22T01:02:19;97413.72;;;0.48;80.45
65546;BME280;52177;55.968;37.498;2023-12-22T01:02:50;97406.84;;;0.47;80.32
65546;BME280;52177;55.968;37.498;2023-12-22T01:03:21;97400.13;;;0.44;80.21
65546;BME280;52177;55.968;37.498;2023-12-22T01:03:51;97410.63;;;0.44;80.30
65546;BME280;52177;55.968;37.498;2023-12-22T01:04:21;97406.38;;;0.43;80.26
65546;BME280;52177;55.968;37.498;2023-12-22T01:04:52;97400.13;;;0.44;80.35
65546;BME280;52177;55.968;37.498;2023-12-22T01:05:22;97410.63;;;0.44;80.23
65546;BME280;52177;55.968;37.498;2023-12-22T01:05:52;97408.66;;;0.46;80.40
65546;BME280;52177;55.968;37.498;2023-12-22T01:06:23;97406.84;;;0.47;80.18
65546;BME280;52177;55.968;37.498;2023-12-22T01:06:54;97408.50;;;0.48;80.26
65546;BME280;52177;55.968;37.498;2023-12-22T01:07:24;97404.22;;;0.47;80.04
65546;BME280;52177;55.968;37.498;2023-12-22T01:07:55;97404.06;;;0.48;80.12
65546;BME280;52177;55.968;37.498;2023-12-22T01:08:26;97406.69;;;0.48;80.07
65546;BME280;52177;55.968;37.498;2023-12-22T01:08:56;97406.53;;;0.50;79.99
65546;BME280;52177;55.968;37.498;2023-12-22T01:09:26;97407.19;;;0.52;80.05
65546;BME280;52177;55.968;37.498;2023-12-22T01:09:57;97405.53;;;0.51;79.99
65546;BME280;52177;55.968;37.498;2023-12-22T01:10:31;97412.22;;;0.53;79.96
65546;BME280;52177;55.968;37.498;2023-12-22T01:11:01;97410.41;;;0.54;79.82
65546;BME280;52177;55.968;37.498;2023-12-22T01:11:32;97409.44;;;0.55;79.79
65546;BME280;52177;55.968;37.498;2023-12-22T01:12:03;97411.06;;;0.56;79.70
65546;BME280;52177;55.968;37.498;2023-12-22T01:12:34;97413.88;;;0.54;79.74
65546;BME280;52177;55.968;37.498;2023-12-22T01:13:04;97412.88;;;0.55;79.67
65546;BME280;52177;55.968;37.498;2023-12-22T01:13:35;97414.53;;;0.56;79.79
65546;BME280;52177;55.968;37.498;2023-12-22T01:14:05;97408.44;;;0.56;79.84
65546;BME280;52177;55.968;37.498;2023-12-22T01:14:37;97402.41;;;0.55;79.67
65546;BME280;52177;55.968;37.498;2023-12-22T01:15:07;97410.09;;;0.57;79.63
65546;BME280;52177;55.968;37.498;2023-12-22T01:15:38;97400.59;;;0.56;79.45
65546;BME280;52177;55.968;37.498;2023-12-22T01:16:08;97404.03;;;0.56;79.51
65546;BME280;52177;55.968;37.498;2023-12-22T01:16:39;97408.44;;;0.56;79.29
65546;BME280;52177;55.968;37.498;2023-12-22T01:17:09;97411.06;;;0.56;79.44
65546;BME280;52177;55.968;37.498;2023-12-22T01:17:40;97405.66;;;0.57;79.51
65546;BME280;52177;55.968;37.498;2023-12-22T01:18:11;97406.47;;;0.58;79.48
65546;BME280;52177;55.968;37.498;2023-12-22T01:18:41;97409.09;;;0.58;79.31
65546;BME280;52177;55.968;37.498;2023-12-22T01:19:13;97401.22;;;0.58;79.16
65546;BME280;52177;55.968;37.498;2023-12-22T01:19:44;97398.63;;;0.58;79.04
65546;BME280;52177;55.968;37.498;2023-12-22T01:20:15;97403.03;;;0.57;79.07
65546;BME280;52177;55.968;37.498;2023-12-22T01:20:45;97401.44;;;0.56;78.74
65546;BME280;52177;55.968;37.498;2023-12-22T01:21:16;97407.63;;;0.55;78.78
65546;BME280;52177;55.968;37.498;2023-12-22T01:21:47;97396.19;;;0.56;78.85
65546;BME280;52177;55.968;37.498;2023-12-22T01:22:17;97410.09;;;0.57;78.98
65546;BME280;52177;55.968;37.498;2023-12-22T01:22:48;97400.06;;;0.60;79.10
65546;BME280;52177;55.968;37.498;2023-12-22T01:23:18;97396.63;;;0.60;78.93
65546;BME280;52177;55.968;37.498;2023-12-22T01:23:48;97396.63;;;0.60;78.83
65546;BME280;52177;55.968;37.498;2023-12-22T01:24:19;97404.50;;;0.60;78.70
65546;BME280;52177;55.968;37.498;2023-12-22T01:24:49;97407.13;;;0.60;78.67
65546;BME280;52177;55.968;37.498;2023-12-22T01:25:20;97410.56;;;0.60;78.70
65546;BME280;52177;55.968;37.498;2023-12-22T01:25:50;97407.94;;;0.60;78.68
65546;BME280;52177;55.968;37.498;2023-12-22T01:26:20;97405.16;;;0.62;78.62
65546;BME280;52177;55.968;37.498;2023-12-22T01:26:51;97405.00;;;0.63;78.67
65546;BME280;52177;55.968;37.498;2023-12-22T01:27:21;97401.38;;;0.65;78.30
65546;BME280;52177;55.968;37.498;2023-12-22T01:27:52;97406.63;;;0.65;78.44
65546;BME280;52177;55.968;37.498;2023-12-22T01:28:22;97403.03;;;0.66;78.28
65546;BME280;52177;55.968;37.498;2023-12-22T01:28:52;97405.00;;;0.63;77.89
65546;BME280;52177;55.968;37.498;2023-12-22T01:29:23;97403.34;;;0.62;78.07
65546;BME280;52177;55.968;37.498;2023-12-22T01:29:53;97400.91;;;0.61;77.94
65546;BME280;52177;55.968;37.498;2023-12-22T01:30:23;97394.19;;;0.58;78.14
65546;BME280;52177;55.968;37.498;2023-12-22T01:30:54;97403.69;;;0.59;78.14
65546;BME280;52177;55.968;37.498;2023-12-22T01:31:24;97406.16;;;0.61;78.10
65546;BME280;52177;55.968;37.498;2023-12-22T01:31:54;97402.88;;;0.59;78.08
65546;BME280;52177;55.968;37.498;2023-12-22T01:32:25;97399.41;;;0.58;77.99
65546;BME280;52177;55.968;37.498;2023-12-22T01:32:55;97396.00;;;0.58;78.02
65546;BME280;52177;55.968;37.498;2023-12-22T01:33:26;97400.41;;;0.57;78.04
65546;BME280;52177;55.968;37.498;2023-12-22T01:33:56;97404.03;;;0.56;78.03
65546;BME280;52177;55.968;37.498;2023-12-22T01:34:26;97405.81;;;0.56;77.89
65546;BME280;52177;55.968;37.498;2023-12-22T01:34:57;97403.22;;;0.56;78.05
65546;BME280;52177;55.968;37.498;2023-12-22T01:35:27;97400.94;;;0.53;77.82
65546;BME280;52177;55.968;37.498;2023-12-22T01:35:58;97399.31;;;0.52;77.83
65546;BME280;52177;55.968;37.498;2023-12-22T01:36:29;97398.47;;;0.51;77.80
65546;BME280;52177;55.968;37.498;2023-12-22T01:36:59;97398.66;;;0.50;77.85
65546;BME280;52177;55.968;37.498;2023-12-22T01:37:30;97397.84;;;0.49;77.77
65546;BME280;52177;55.968;37.498;2023-12-22T01:38:00;97400.47;;;0.49;77.80
65546;BME280;52177;55.968;37.498;2023-12-22T01:38:30;97388.34;;;0.48;77.70
65546;BME280;52177;55.968;37.498;2023-12-22T01:39:01;97395.38;;;0.48;77.96
65546;BME280;52177;55.968;37.498;2023-12-22T01:39:31;97399.81;;;0.47;77.77
65546;BME280;52177;55.968;37.498;2023-12-22T01:40:02;97399.81;;;0.47;77.82
65546;BME280;52177;55.968;37.498;2023-12-22T01:40:33;97394.56;;;0.47;77.85
65546;BME280;52177;55.968;37.498;2023-12-22T01:41:03;97389.97;;;0.49;77.94
65546;BME280;52177;55.968;37.498;2023-12-22T01:41:33;97396.19;;;0.48;77.66
65546;BME280;52177;55.968;37.498;2023-12-22T01:42:04;97399.63;;;0.49;77.74
65546;BME280;52177;55.968;37.498;2023-12-22T01:42:34;97396.34;;;0.47;77.65
65546;BME280;52177;55.968;37.498;2023-12-22T01:43:05;97385.88;;;0.47;77.72
65546;BME280;52177;55.968;37.498;2023-12-22T01:43:35;97390.31;;;0.46;77.68
65546;BME280;52177;55.968;37.498;2023-12-22T01:44:05;97392.94;;;0.46;77.70
65546;BME280;52177;55.968;37.498;2023-12-22T01:44:36;97393.72;;;0.47;77.69
65546;BME280;52177;55.968;37.498;2023-12-22T01:45:07;97391.13;;;0.47;77.68
65546;BME280;52177;55.968;37.498;2023-12-22T01:45:37;97390.31;;;0.46;77.83
65546;BME280;52177;55.968;37.498;2023-12-22T01:46:09;97384.25;;;0.46;77.70
65546;BME280;52177;55.968;37.498;2023-12-22T01:46:40;97393.13;;;0.45;77.63
65546;BME280;52177;55.968;37.498;2023-12-22T01:47:10;97381.63;;;0.46;77.67
65546;BME280;52177;55.968;37.498;2023-12-22T01:47:41;97390.50;;;0.45;77.54
65546;BME280;52177;55.968;37.498;2023-12-22T01:48:12;97395.72;;;0.45;77.54
65546;BME280;52177;55.968;37.498;2023-12-22T01:48:43;97385.06;;;0.46;77.66
65546;BME280;52177;55.968;37.498;2023-12-22T01:49:14;97391.97;;;0.47;77.84
65546;BME280;52177;55.968;37.498;2023-12-22T01:49:44;97392.75;;;0.48;77.66
65546;BME280;52177;55.968;37.498;2023-12-22T01:50:15;97388.34;;;0.48;77.49
65546;BME280;52177;55.968;37.498;2023-12-22T01:50:46;97394.56;;;0.47;77.38
65546;BME280;52177;55.968;37.498;2023-12-22T01:51:17;97388.34;;;0.48;77.51
65546;BME280;52177;55.968;37.498;2023-12-22T01:51:47;97394.38;;;0.49;77.51
65546;BME280;52177;55.968;37.498;2023-12-22T01:52:19;97395.84;;;0.51;77.56
65546;BME280;52177;55.968;37.498;2023-12-22T01:52:50;97401.09;;;0.51;77.44
65546;BME280;52177;55.968;37.498;2023-12-22T01:53:20;97390.78;;;0.50;77.22
65546;BME280;52177;55.968;37.498;2023-12-22T01:53:51;97392.41;;;0.51;77.34
65546;BME280;52177;55.968;37.498;2023-12-22T01:54:22;97383.41;;;0.53;77.20
65546;BME280;52177;55.968;37.498;2023-12-22T01:54:53;97391.44;;;0.52;77.06
65546;BME280;52177;55.968;37.498;2023-12-22T01:55:25;97390.59;;;0.51;76.88
65546;BME280;52177;55.968;37.498;2023-12-22T01:55:55;97393.06;;;0.53;76.90
65546;BME280;52177;55.968;37.498;2023-12-22T01:56:26;97390.28;;;0.54;76.90
65546;BME280;52177;55.968;37.498;2023-12-22T01:56:57;97382.59;;;0.53;76.84
65546;BME280;52177;55.968;37.498;2023-12-22T01:57:27;97381.41;;;0.55;77.02
65546;BME280;52177;55.968;37.498;2023-12-22T01:57:58;97382.75;;;0.51;76.77
65546;BME280;52177;55.968;37.498;2023-12-22T01:58:30;97381.94;;;0.51;76.86
65546;BME280;52177;55.968;37.498;2023-12-22T01:59:03;97380.97;;;0.52;76.94
65546;BME280;52177;55.968;37.498;2023-12-22T01:59:33;97378.97;;;0.54;77.00
65546;BME280;52177;55.968;37.498;2023-12-22T02:00:05;97375.38;;;0.55;76.95
65546;BME280;52177;55.968;37.498;2023-12-22T02:00:35;97371.75;;;0.56;76.96
65546;BME280;52177;55.968;37.498;2023-12-22T02:01:06;97378.63;;;0.57;76.94
65546;BME280;52177;55.968;37.498;2023-12-22T02:01:38;97378.63;;;0.57;76.76
65546;BME280;52177;55.968;37.498;2023-12-22T02:02:09;97373.22;;;0.58;77.00
65546;BME280;52177;55.968;37.498;2023-12-22T02:02:41;97384.34;;;0.60;76.96
65546;BME280;52177;55.968;37.498;2023-12-22T02:03:14;97373.03;;;0.60;77.10
65546;BME280;52177;55.968;37.498;2023-12-22T02:03:48;97376.97;;;0.64;77.00
65546;BME280;52177;55.968;37.498;2023-12-22T02:04:19;97376.97;;;0.64;77.11
65546;BME280;52177;55.968;37.498;2023-12-22T02:04:50;97375.16;;;0.65;77.20
65546;BME280;52177;55.968;37.498;2023-12-22T02:05:21;97380.25;;;0.66;77.30
65546;BME280;52177;55.968;37.498;2023-12-22T02:05:51;97381.06;;;0.67;77.17
65546;BME280;52177;55.968;37.498;2023-12-22T02:06:21;97380.91;;;0.68;77.16
65546;BME280;52177;55.968;37.498;2023-12-22T02:06:52;97380.91;;;0.68;77.10
65546;BME280;52177;55.968;37.498;2023-12-22T02:07:22;97381.69;;;0.69;77.11
65546;BME280;52177;55.968;37.498;2023-12-22T02:07:53;97380.69;;;0.70;77.30
65546;BME280;52177;55.968;37.498;2023-12-22T02:08:24;97381.50;;;0.70;77.23
65546;BME280;52177;55.968;37.498;2023-12-22T02:08:57;97379.06;;;0.69;77.03
65546;BME280;52177;55.968;37.498;2023-12-22T02:09:28;97378.88;;;0.70;77.08
65546;BME280;52177;55.968;37.498;2023-12-22T02:09:58;97377.91;;;0.71;77.05
65546;BME280;52177;55.968;37.498;2023-12-22T02:10:28;97380.53;;;0.71;77.08
65546;BME280;52177;55.968;37.498;2023-12-22T02:10:59;97378.56;;;0.73;77.13
65546;BME280;52177;55.968;37.498;2023-12-22T02:11:29;97378.56;;;0.73;77.07
65546;BME280;52177;55.968;37.498;2023-12-22T02:11:59;97380.38;;;0.73;77.08
65546;BME280;52177;55.968;37.498;2023-12-22T02:12:30;97377.56;;;0.74;77.11
65546;BME280;52177;55.968;37.498;2023-12-22T02:13:00;97382.00;;;0.74;76.99
65546;BME280;52177;55.968;37.498;2023-12-22T02:13:31;97382.81;;;0.74;77.17
65546;BME280;52177;55.968;37.498;2023-12-22T02:14:01;97380.38;;;0.73;76.96
65546;BME280;52177;55.968;37.498;2023-12-22T02:14:32;97383.81;;;0.73;76.94
65546;BME280;52177;55.968;37.498;2023-12-22T02:15:03;97374.94;;;0.74;76.87
65546;BME280;52177;55.968;37.498;2023-12-22T02:15:35;97376.91;;;0.72;76.57
65546;BME280;52177;55.968;37.498;2023-12-22T02:16:22;97369.25;;;0.71;76.77
65546;BME280;52177;55.968;37.498;2023-12-22T02:18:09;97376.25;;;0.70;76.70
65546;BME280;52177;55.968;37.498;2023-12-22T02:18:43;97368.41;;;0.70;76.74
65546;BME280;52177;55.968;37.498;2023-12-22T02:20:06;97372.50;;;0.73;76.91
65546;BME280;52177;55.968;37.498;2023-12-22T02:20:38;97366.25;;;0.74;76.66
65546;BME280;52177;55.968;37.498;2023-12-22T02:21:08;97367.28;;;0.73;76.47
65546;BME280;52177;55.968;37.498;2023-12-22T02:21:59;97376.09;;;0.72;76.43
65546;BME280;52177;55.968;37.498;2023-12-22T02:22:29;97373.66;;;0.70;76.45
65546;BME280;52177;55.968;37.498;2023-12-22T02:23:00;97372.84;;;0.70;76.33
65546;BME280;52177;55.968;37.498;2023-12-22T02:23:30;97381.50;;;0.70;76.52
65546;BME280;52177;55.968;37.498;2023-12-22T02:24:00;97373.66;;;0.70;76.60
65546;BME280;52177;55.968;37.498;2023-12-22T02:24:31;97371.03;;;0.70;76.77
65546;BME280;52177;55.968;37.498;2023-12-22T02:25:02;97377.09;;;0.71;76.85
65546;BME280;52177;55.968;37.498;2023-12-22T02:25:33;97365.63;;;0.72;76.88
65546;BME280;52177;55.968;37.498;2023-12-22T02:26:10;97364.81;;;0.71;76.63
65546;BME280;52177;55.968;37.498;2023-12-22T02:26:45;97372.84;;;0.70;76.52
65546;BME280;52177;55.968;37.498;2023-12-22T02:27:59;97363.50;;;0.67;76.50
65546;BME280;52177;55.968;37.498;2023-12-22T02:28:33;97364.31;;;0.68;76.65
65546;BME280;52177;55.968;37.498;2023-12-22T02:29:05;97370.41;;;0.68;76.67
65546;BME280;52177;55.968;37.498;2023-12-22T02:29:41;97368.75;;;0.67;76.54
65546;BME280;52177;55.968;37.498;2023-12-22T02:30:38;97365.97;;;0.69;76.61
65546;BME280;52177;55.968;37.498;2023-12-22T02:31:33;97367.94;;;0.67;76.60
65546;BME280;52177;55.968;37.498;2023-12-22T02:32:10;97366.13;;;0.67;76.63
65546;BME280;52177;55.968;37.498;2023-12-22T02:32:44;97369.09;;;0.64;76.24
65546;BME280;52177;55.968;37.498;2023-12-22T02:33:16;97370.72;;;0.65;76.23
65546;BME280;52177;55.968;37.498;2023-12-22T02:33:48;97374.19;;;0.66;76.54
65546;BME280;52177;55.968;37.498;2023-12-22T02:34:23;97372.53;;;0.65;76.28
65546;BME280;52177;55.968;37.498;2023-12-22T02:34:56;97368.09;;;0.65;76.52
65546;BME280;52177;55.968;37.498;2023-12-22T02:35:29;97368.75;;;0.67;76.63
65546;BME280;52177;55.968;37.498;2023-12-22T02:36:03;97375.97;;;0.65;76.42
65546;BME280;52177;55.968;37.498;2023-12-22T02:36:36;97366.31;;;0.66;76.50
65546;BME280;52177;55.968;37.498;2023-12-22T02:37:08;97372.19;;;0.68;76.48
65546;BME280;52177;55.968;37.498;2023-12-22T02:37:39;97364.16;;;0.69;76.41
65546;BME280;52177;55.968;37.498;2023-12-22T02:38:12;97371.88;;;0.71;76.33
65546;BME280;52177;55.968;37.498;2023-12-22T02:38:43;97366.63;;;0.71;76.45
65546;BME280;52177;55.968;37.498;2023-12-22T02:39:16;97370.06;;;0.71;76.40
65546;BME280;52177;55.968;37.498;2023-12-22T02:39:47;97364.81;;;0.71;76.43
65546;BME280;52177;55.968;37.498;2023-12-22T02:40:19;97373.31;;;0.73;76.45
65546;BME280;52177;55.968;37.498;2023-12-22T02:40:50;97360.22;;;0.73;76.32
65546;BME280;52177;55.968;37.498;2023-12-22T02:41:21;97367.44;;;0.71;76.19
65546;BME280;52177;55.968;37.498;2023-12-22T02:41:52;97356.78;;;0.73;76.31
65546;BME280;52177;55.968;37.498;2023-12-22T02:42:23;97362.03;;;0.73;76.39
65546;BME280;52177;55.968;37.498;2023-12-22T02:43:01;97367.06;;;0.74;76.46
65546;BME280;52177;55.968;37.498;2023-12-22T02:43:32;97361.03;;;0.74;76.50
65546;BME280;52177;55.968;37.498;2023-12-22T02:44:03;97365.25;;;0.75;76.45
65546;BME280;52177;55.968;37.498;2023-12-22T02:44:33;97362.47;;;0.76;76.61
65546;BME280;52177;55.968;37.498;2023-12-22T02:45:05;97370.34;;;0.76;76.47
65546;BME280;52177;55.968;37.498;2023-12-22T02:45:36;97362.31;;;0.78;76.56
65546;BME280;52177;55.968;37.498;2023-12-22T02:46:13;97364.94;;;0.78;76.45
65546;BME280;52177;55.968;37.498;2023-12-22T02:46:44;97363.28;;;0.77;76.42
65546;BME280;52177;55.968;37.498;2023-12-22T02:47:14;97364.28;;;0.76;76.20
65546;BME280;52177;55.968;37.498;2023-12-22T02:47:45;97365.91;;;0.77;76.36